sensor_id;sensor_type;location;lat;lon;timestamp;temperature;humidity
5222;DHT22;2630;52.036;8.514;2022-11-04T00:06:43;11.60;99.90
5222;DHT22;2630;52.036;8.514;2022-11-04T00:14:21;11.70;99.90
5222;DHT22;2630;52.036;8.514;2022-11-04T00:16:47;11.60;99.90
5222;DHT22;2630;52.036;8.514;2022-11-04T00:19:31;11.50;99.90
5222;DHT22;2630;52.036;8.514;2022-11-04T00:22:15;11.50;99.90
5222;DHT22;2630;52.036;8.514;2022-11-04T00:25:00;11.50;99.90
5222;DHT22;2630;52.036;8.514;2022-11-04T00:27:44;11.50;99.90
5222;DHT22;2630;52.036;8.514;2022-11-04T00:30:28;11.50;99.90
5222;DHT22;2630;52.036;8.514;2022-11-04T00:32:54;11.50;99.90
5222;DHT22;2630;52.036;8.514;2022-11-04T00:38:05;11.60;99.90
5222;DHT22;2630;52.036;8.514;2022-11-04T00:40:30;11.60;99.90
5222;DHT22;2630;52.036;8.514;2022-11-04T00:42:56;11.60;99.90
5222;DHT22;2630;52.036;8.514;2022-11-04T00:45:21;11.60;99.90
5222;DHT22;2630;52.036;8.514;2022-11-04T00:47:47;11.60;99.90
5222;DHT22;2630;52.036;8.514;2022-11-04T00:50:12;11.70;99.90
5222;DHT22;2630;52.036;8.514;2022-11-04T00:52:38;11.70;99.90
5222;DHT22;2630;52.036;8.514;2022-11-04T00:55:04;11.70;99.90
5222;DHT22;2630;52.036;8.514;2022-11-04T00:57:29;11.70;99.90
5222;DHT22;2630;52.036;8.514;2022-11-04T01:02:22;11.70;99.90
5222;DHT22;2630;52.036;8.514;2022-11-04T01:04:47;11.70;99.90
5222;DHT22;2630;52.036;8.514;2022-11-04T01:07:13;11.70;99.90
5222;DHT22;2630;52.036;8.514;2022-11-04T01:09:38;11.70;99.90
5222;DHT22;2630;52.036;8.514;2022-11-04T01:12:04;11.70;99.90
5222;DHT22;2630;52.036;8.514;2022-11-04T01:14:30;11.70;99.90
5222;DHT22;2630;52.036;8.514;2022-11-04T01:16:55;11.60;99.90
5222;DHT22;2630;52.036;8.514;2022-11-04T01:19:21;11.60;99.90
5222;DHT22;2630;52.036;8.514;2022-11-04T01:21:50;11.60;99.90
5222;DHT22;2630;52.036;8.514;2022-11-04T01:24:16;11.60;99.90
5222;DHT22;2630;52.036;8.514;2022-11-04T01:29:07;11.50;99.90
5222;DHT22;2630;52.036;8.514;2022-11-04T01:31:33;11.60;99.90
5222;DHT22;2630;52.036;8.514;2022-11-04T01:33:58;11.50;99.90
5222;DHT22;2630;52.036;8.514;2022-11-04T01:36:25;11.50;99.90
5222;DHT22;2630;52.036;8.514;2022-11-04T01:38:51;11.50;99.90
5222;DHT22;2630;52.036;8.514;2022-11-04T01:41:21;11.50;99.90
5222;DHT22;2630;52.036;8.514;2022-11-04T01:51:50;11.30;99.90
5222;DHT22;2630;52.036;8.514;2022-11-04T01:54:19;11.30;99.90
5222;DHT22;2630;52.036;8.514;2022-11-04T01:56:46;11.20;99.90
5222;DHT22;2630;52.036;8.514;2022-11-04T01:59:18;11.30;99.90
5222;DHT22;2630;52.036;8.514;2022-11-04T02:01:45;11.20;99.90
5222;DHT22;2630;52.036;8.514;2022-11-04T02:04:12;11.20;99.90
5222;DHT22;2630;52.036;8.514;2022-11-04T02:07:02;11.10;99.90
5222;DHT22;2630;52.036;8.514;2022-11-04T02:09:29;11.10;99.90
5222;DHT22;2630;52.036;8.514;2022-11-04T02:11:56;11.00;99.90
5222;DHT22;2630;52.036;8.514;2022-11-04T02:14:40;11.00;99.90
5222;DHT22;2630;52.036;8.514;2022-11-04T02:17:29;10.90;99.90
5222;DHT22;2630;52.036;8.514;2022-11-04T02:20:10;10.80;99.90
5222;DHT22;2630;52.036;8.514;2022-11-04T02:30:49;10.70;99.90
5222;DHT22;2630;52.036;8.514;2022-11-04T02:33:26;10.70;99.90
5222;DHT22;2630;52.036;8.514;2022-11-04T02:44:03;10.70;99.90
5222;DHT22;2630;52.036;8.514;2022-11-04T02:46:38;10.80;99.90
5222;DHT22;2630;52.036;8.514;2022-11-04T02:49:16;10.70;99.90
5222;DHT22;2630;52.036;8.514;2022-11-04T02:51:59;10.60;99.90
5222;DHT22;2630;52.036;8.514;2022-11-04T02:54:37;10.60;99.90
5222;DHT22;2630;52.036;8.514;2022-11-04T02:57:10;10.60;99.90
5222;DHT22;2630;52.036;8.514;2022-11-04T02:59:45;10.60;99.90
5222;DHT22;2630;52.036;8.514;2022-11-04T03:02:17;10.60;99.90
5222;DHT22;2630;52.036;8.514;2022-11-04T03:04:48;10.50;99.90
5222;DHT22;2630;52.036;8.514;2022-11-04T03:07:19;10.50;99.90
5222;DHT22;2630;52.036;8.514;2022-11-04T03:09:49;10.50;99.90
5222;DHT22;2630;52.036;8.514;2022-11-04T03:12:18;10.40;99.90
5222;DHT22;2630;52.036;8.514;2022-11-04T03:14:49;10.50;99.90
5222;DHT22;2630;52.036;8.514;2022-11-04T03:17:31;10.50;99.90
5222;DHT22;2630;52.036;8.514;2022-11-04T03:20:04;10.40;99.90
5222;DHT22;2630;52.036;8.514;2022-11-04T03:22:34;10.30;99.90
5222;DHT22;2630;52.036;8.514;2022-11-04T03:25:05;10.40;99.90
5222;DHT22;2630;52.036;8.514;2022-11-04T03:27:41;10.30;99.90
5222;DHT22;2630;52.036;8.514;2022-11-04T03:30:16;10.30;99.90
5222;DHT22;2630;52.036;8.514;2022-11-04T03:35:18;10.20;99.90
5222;DHT22;2630;52.036;8.514;2022-11-04T03:40:11;10.20;99.90
5222;DHT22;2630;52.036;8.514;2022-11-04T03:42:43;10.10;99.90
5222;DHT22;2630;52.036;8.514;2022-11-04T03:45:10;10.10;99.90
5222;DHT22;2630;52.036;8.514;2022-11-04T03:47:37;10.00;99.90
5222;DHT22;2630;52.036;8.514;2022-11-04T03:52:37;10.10;99.90
5222;DHT22;2630;52.036;8.514;2022-11-04T03:55:04;10.20;99.90
5222;DHT22;2630;52.036;8.514;2022-11-04T04:05:47;10.20;99.90
5222;DHT22;2630;52.036;8.514;2022-11-04T04:13:43;10.10;99.90
5222;DHT22;2630;52.036;8.514;2022-11-04T04:16:20;10.20;99.90
5222;DHT22;2630;52.036;8.514;2022-11-04T04:18:53;10.20;99.90
5222;DHT22;2630;52.036;8.514;2022-11-04T04:21:21;10.30;99.90
5222;DHT22;2630;52.036;8.514;2022-11-04T04:23:49;10.30;99.90
5222;DHT22;2630;52.036;8.514;2022-11-04T04:26:35;10.30;99.90
5222;DHT22;2630;52.036;8.514;2022-11-04T04:29:21;10.30;99.90
5222;DHT22;2630;52.036;8.514;2022-11-04T04:31:48;10.30;99.90
5222;DHT22;2630;52.036;8.514;2022-11-04T04:34:21;10.20;99.90
5222;DHT22;2630;52.036;8.514;2022-11-04T04:39:54;10.10;99.90
5222;DHT22;2630;52.036;8.514;2022-11-04T04:42:39;10.00;99.90
5222;DHT22;2630;52.036;8.514;2022-11-04T04:45:37;10.00;99.90
5222;DHT22;2630;52.036;8.514;2022-11-04T04:48:05;10.00;99.90
5222;DHT22;2630;52.036;8.514;2022-11-04T04:50:38;10.10;99.90
5222;DHT22;2630;52.036;8.514;2022-11-04T04:53:05;10.20;99.90
5222;DHT22;2630;52.036;8.514;2022-11-04T04:55:30;10.20;99.90
5222;DHT22;2630;52.036;8.514;2022-11-04T04:57:57;10.30;99.90
5222;DHT22;2630;52.036;8.514;2022-11-04T05:02:49;10.30;99.90
5222;DHT22;2630;52.036;8.514;2022-11-04T05:05:15;10.40;99.90
5222;DHT22;2630;52.036;8.514;2022-11-04T05:10:09;10.40;99.90
5222;DHT22;2630;52.036;8.514;2022-11-04T05:12:36;10.40;99.90
5222;DHT22;2630;52.036;8.514;2022-11-04T05:15:20;10.50;99.90
5222;DHT22;2630;52.036;8.514;2022-11-04T05:17:46;10.50;99.90
5222;DHT22;2630;52.036;8.514;2022-11-04T05:20:12;10.60;99.90
5222;DHT22;2630;52.036;8.514;2022-11-04T05:22:38;10.60;99.90
5222;DHT22;2630;52.036;8.514;2022-11-04T05:25:03;10.60;99.90
5222;DHT22;2630;52.036;8.514;2022-11-04T05:27:29;10.60;99.90
5222;DHT22;2630;52.036;8.514;2022-11-04T05:29:54;10.60;99.90
5222;DHT22;2630;52.036;8.514;2022-11-04T05:32:20;10.60;99.90
5222;DHT22;2630;52.036;8.514;2022-11-04T05:34:47;10.60;99.90
5222;DHT22;2630;52.036;8.514;2022-11-04T05:37:12;10.60;99.90
5222;DHT22;2630;52.036;8.514;2022-11-04T05:42:04;10.70;99.90
5222;DHT22;2630;52.036;8.514;2022-11-04T05:44:29;10.70;99.90
5222;DHT22;2630;52.036;8.514;2022-11-04T05:49:21;10.60;99.90
5222;DHT22;2630;52.036;8.514;2022-11-04T05:51:46;10.40;99.90
5222;DHT22;2630;52.036;8.514;2022-11-04T05:54:12;10.30;99.90
5222;DHT22;2630;52.036;8.514;2022-11-04T05:59:03;10.40;99.90
5222;DHT22;2630;52.036;8.514;2022-11-04T06:01:34;10.40;99.90
5222;DHT22;2630;52.036;8.514;2022-11-04T06:04:02;10.40;99.90
5222;DHT22;2630;52.036;8.514;2022-11-04T06:06:30;10.40;99.90
5222;DHT22;2630;52.036;8.514;2022-11-04T06:08:56;10.40;99.90
5222;DHT22;2630;52.036;8.514;2022-11-04T06:11:23;10.40;99.90
5222;DHT22;2630;52.036;8.514;2022-11-04T06:13:49;10.40;99.90
5222;DHT22;2630;52.036;8.514;2022-11-04T06:16:15;10.30;99.90
5222;DHT22;2630;52.036;8.514;2022-11-04T06:18:41;10.40;99.90
5222;DHT22;2630;52.036;8.514;2022-11-04T06:21:19;10.30;99.90
5222;DHT22;2630;52.036;8.514;2022-11-04T06:23:47;10.40;99.90
5222;DHT22;2630;52.036;8.514;2022-11-04T06:26:13;10.40;99.90
5222;DHT22;2630;52.036;8.514;2022-11-04T06:28:39;10.30;99.90
5222;DHT22;2630;52.036;8.514;2022-11-04T06:33:32;10.40;99.90
5222;DHT22;2630;52.036;8.514;2022-11-04T06:35:58;10.40;99.90
5222;DHT22;2630;52.036;8.514;2022-11-04T06:38:24;10.30;99.90
5222;DHT22;2630;52.036;8.514;2022-11-04T06:40:50;10.30;99.90
5222;DHT22;2630;52.036;8.514;2022-11-04T06:45:42;10.30;99.90
5222;DHT22;2630;52.036;8.514;2022-11-04T06:48:07;10.30;99.90
5222;DHT22;2630;52.036;8.514;2022-11-04T06:50:33;10.30;99.90
5222;DHT22;2630;52.036;8.514;2022-11-04T06:52:58;10.30;99.90
5222;DHT22;2630;52.036;8.514;2022-11-04T06:55:24;10.30;99.90
5222;DHT22;2630;52.036;8.514;2022-11-04T06:57:50;10.30;99.90
5222;DHT22;2630;52.036;8.514;2022-11-04T07:00:16;10.30;99.90
5222;DHT22;2630;52.036;8.514;2022-11-04T07:05:08;10.20;99.90
5222;DHT22;2630;52.036;8.514;2022-11-04T07:07:34;10.20;99.90
5222;DHT22;2630;52.036;8.514;2022-11-04T07:09:59;10.20;99.90
5222;DHT22;2630;52.036;8.514;2022-11-04T07:14:51;10.30;99.90
5222;DHT22;2630;52.036;8.514;2022-11-04T07:17:17;10.30;99.90
5222;DHT22;2630;52.036;8.514;2022-11-04T07:19:42;10.30;99.90
5222;DHT22;2630;52.036;8.514;2022-11-04T07:22:08;10.30;99.90
5222;DHT22;2630;52.036;8.514;2022-11-04T07:24:34;10.40;99.90
5222;DHT22;2630;52.036;8.514;2022-11-04T07:26:59;10.40;99.90
5222;DHT22;2630;52.036;8.514;2022-11-04T07:29:25;10.30;99.90
5222;DHT22;2630;52.036;8.514;2022-11-04T07:31:51;10.40;99.90
5222;DHT22;2630;52.036;8.514;2022-11-04T07:34:16;10.30;99.90
5222;DHT22;2630;52.036;8.514;2022-11-04T07:36:42;10.40;99.90
5222;DHT22;2630;52.036;8.514;2022-11-04T07:41:33;10.50;99.90
5222;DHT22;2630;52.036;8.514;2022-11-04T07:43:59;10.60;99.90
5222;DHT22;2630;52.036;8.514;2022-11-04T07:46:26;10.60;99.90
5222;DHT22;2630;52.036;8.514;2022-11-04T07:48:55;10.60;99.90
5222;DHT22;2630;52.036;8.514;2022-11-04T07:51:20;10.60;99.90
5222;DHT22;2630;52.036;8.514;2022-11-04T07:53:46;10.50;99.90
5222;DHT22;2630;52.036;8.514;2022-11-04T07:56:12;10.50;99.90
5222;DHT22;2630;52.036;8.514;2022-11-04T07:58:39;10.50;99.90
5222;DHT22;2630;52.036;8.514;2022-11-04T08:01:07;10.60;99.90
5222;DHT22;2630;52.036;8.514;2022-11-04T08:03:34;11.00;99.90
5222;DHT22;2630;52.036;8.514;2022-11-04T08:06:03;11.10;99.90
5222;DHT22;2630;52.036;8.514;2022-11-04T08:08:29;11.40;99.90
5222;DHT22;2630;52.036;8.514;2022-11-04T08:10:59;11.50;99.90
5222;DHT22;2630;52.036;8.514;2022-11-04T08:13:29;11.50;99.90
5222;DHT22;2630;52.036;8.514;2022-11-04T08:18:21;11.50;99.90
5222;DHT22;2630;52.036;8.514;2022-11-04T08:20:50;11.50;99.90
5222;DHT22;2630;52.036;8.514;2022-11-04T08:23:17;11.50;99.90
5222;DHT22;2630;52.036;8.514;2022-11-04T08:25:43;11.50;99.90
5222;DHT22;2630;52.036;8.514;2022-11-04T08:28:08;11.40;99.90
5222;DHT22;2630;52.036;8.514;2022-11-04T08:30:38;11.50;99.90
5222;DHT22;2630;52.036;8.514;2022-11-04T08:33:03;11.60;99.90
5222;DHT22;2630;52.036;8.514;2022-11-04T08:35:30;11.70;99.90
5222;DHT22;2630;52.036;8.514;2022-11-04T08:40:21;11.60;99.90
5222;DHT22;2630;52.036;8.514;2022-11-04T08:42:48;11.60;99.90
5222;DHT22;2630;52.036;8.514;2022-11-04T08:47:40;11.80;99.90
5222;DHT22;2630;52.036;8.514;2022-11-04T08:52:32;11.90;99.90
5222;DHT22;2630;52.036;8.514;2022-11-04T08:54:58;11.90;99.90
5222;DHT22;2630;52.036;8.514;2022-11-04T08:57:24;11.80;99.90
5222;DHT22;2630;52.036;8.514;2022-11-04T09:02:15;12.10;99.90
5222;DHT22;2630;52.036;8.514;2022-11-04T09:07:07;11.80;99.90
5222;DHT22;2630;52.036;8.514;2022-11-04T09:09:34;11.70;99.90
5222;DHT22;2630;52.036;8.514;2022-11-04T09:11:59;11.60;99.90
5222;DHT22;2630;52.036;8.514;2022-11-04T09:14:25;11.70;99.90
5222;DHT22;2630;52.036;8.514;2022-11-04T09:16:50;11.70;99.90
5222;DHT22;2630;52.036;8.514;2022-11-04T09:19:16;11.80;99.90
5222;DHT22;2630;52.036;8.514;2022-11-04T09:21:41;11.90;99.90
5222;DHT22;2630;52.036;8.514;2022-11-04T09:24:07;12.00;99.90
5222;DHT22;2630;52.036;8.514;2022-11-04T09:26:33;12.10;99.90
5222;DHT22;2630;52.036;8.514;2022-11-04T09:28:59;12.00;99.90
5222;DHT22;2630;52.036;8.514;2022-11-04T09:33:53;12.00;99.90
5222;DHT22;2630;52.036;8.514;2022-11-04T09:36:19;12.10;99.90
5222;DHT22;2630;52.036;8.514;2022-11-04T09:38:45;12.20;99.90
5222;DHT22;2630;52.036;8.514;2022-11-04T09:41:27;12.30;99.90
5222;DHT22;2630;52.036;8.514;2022-11-04T09:44:20;12.20;99.90
5222;DHT22;2630;52.036;8.514;2022-11-04T09:59:19;12.80;99.90
5222;DHT22;2630;52.036;8.514;2022-11-04T10:29:37;13.40;99.90
5222;DHT22;2630;52.036;8.514;2022-11-04T10:37:55;13.70;99.90
5222;DHT22;2630;52.036;8.514;2022-11-04T10:40:26;14.00;99.90
5222;DHT22;2630;52.036;8.514;2022-11-04T10:42:55;14.00;99.90
5222;DHT22;2630;52.036;8.514;2022-11-04T10:45:29;14.10;99.90
5222;DHT22;2630;52.036;8.514;2022-11-04T10:47:59;14.30;99.90
5222;DHT22;2630;52.036;8.514;2022-11-04T10:50:33;14.40;99.90
5222;DHT22;2630;52.036;8.514;2022-11-04T10:55:50;14.80;99.90
5222;DHT22;2630;52.036;8.514;2022-11-04T10:58:41;15.10;99.90
5222;DHT22;2630;52.036;8.514;2022-11-04T11:01:24;15.10;99.90
5222;DHT22;2630;52.036;8.514;2022-11-04T11:03:49;15.30;99.90
5222;DHT22;2630;52.036;8.514;2022-11-04T11:06:31;15.40;99.90
5222;DHT22;2630;52.036;8.514;2022-11-04T11:11:47;15.30;99.90
5222;DHT22;2630;52.036;8.514;2022-11-04T11:16:55;14.90;99.90
5222;DHT22;2630;52.036;8.514;2022-11-04T11:19:22;14.80;99.90
5222;DHT22;2630;52.036;8.514;2022-11-04T11:21:54;14.80;99.90
5222;DHT22;2630;52.036;8.514;2022-11-04T11:24:25;15.00;99.90
5222;DHT22;2630;52.036;8.514;2022-11-04T11:26:57;15.00;99.90
5222;DHT22;2630;52.036;8.514;2022-11-04T11:29:26;15.00;99.90
5222;DHT22;2630;52.036;8.514;2022-11-04T11:31:53;14.60;99.90
5222;DHT22;2630;52.036;8.514;2022-11-04T11:34:23;14.40;99.90
5222;DHT22;2630;52.036;8.514;2022-11-04T11:36:52;14.30;99.90
5222;DHT22;2630;52.036;8.514;2022-11-04T11:39:20;14.10;99.90
5222;DHT22;2630;52.036;8.514;2022-11-04T11:42:06;14.10;99.90
5222;DHT22;2630;52.036;8.514;2022-11-04T11:44:38;14.10;99.90
5222;DHT22;2630;52.036;8.514;2022-11-04T11:50:24;13.90;99.90
5222;DHT22;2630;52.036;8.514;2022-11-04T11:53:12;13.90;99.90
5222;DHT22;2630;52.036;8.514;2022-11-04T11:55:45;13.90;99.90
5222;DHT22;2630;52.036;8.514;2022-11-04T11:58:44;13.80;99.90
5222;DHT22;2630;52.036;8.514;2022-11-04T12:01:35;13.80;99.90
5222;DHT22;2630;52.036;8.514;2022-11-04T12:04:04;13.90;99.90
5222;DHT22;2630;52.036;8.514;2022-11-04T12:09:34;13.90;99.90
5222;DHT22;2630;52.036;8.514;2022-11-04T12:25:59;13.10;99.90
5222;DHT22;2630;52.036;8.514;2022-11-04T12:29:02;13.20;99.90
5222;DHT22;2630;52.036;8.514;2022-11-04T12:31:54;13.30;99.90
5222;DHT22;2630;52.036;8.514;2022-11-04T12:34:37;13.40;99.90
5222;DHT22;2630;52.036;8.514;2022-11-04T12:40:20;13.60;99.90
5222;DHT22;2630;52.036;8.514;2022-11-04T12:51:44;14.50;99.90
5222;DHT22;2630;52.036;8.514;2022-11-04T12:56:43;14.80;99.90
5222;DHT22;2630;52.036;8.514;2022-11-04T12:59:42;14.70;99.90
5222;DHT22;2630;52.036;8.514;2022-11-04T13:02:39;14.60;99.90
5222;DHT22;2630;52.036;8.514;2022-11-04T13:10:37;15.10;99.90
5222;DHT22;2630;52.036;8.514;2022-11-04T13:13:05;15.20;99.90
5222;DHT22;2630;52.036;8.514;2022-11-04T13:15:47;15.40;99.90
5222;DHT22;2630;52.036;8.514;2022-11-04T13:18:17;15.60;99.90
5222;DHT22;2630;52.036;8.514;2022-11-04T13:21:04;15.80;99.90
5222;DHT22;2630;52.036;8.514;2022-11-04T13:23:38;15.90;99.90
5222;DHT22;2630;52.036;8.514;2022-11-04T13:26:10;15.90;99.90
5222;DHT22;2630;52.036;8.514;2022-11-04T13:28:37;15.60;99.90
5222;DHT22;2630;52.036;8.514;2022-11-04T13:39:27;14.40;99.90
5222;DHT22;2630;52.036;8.514;2022-11-04T13:44:48;14.10;99.90
5222;DHT22;2630;52.036;8.514;2022-11-04T13:47:19;14.00;99.90
5222;DHT22;2630;52.036;8.514;2022-11-04T13:52:17;14.10;99.90
5222;DHT22;2630;52.036;8.514;2022-11-04T13:57:26;14.30;99.90
5222;DHT22;2630;52.036;8.514;2022-11-04T14:02:39;14.40;99.90
5222;DHT22;2630;52.036;8.514;2022-11-04T14:08:10;14.30;99.90
5222;DHT22;2630;52.036;8.514;2022-11-04T14:18:52;13.80;99.90
5222;DHT22;2630;52.036;8.514;2022-11-04T14:21:23;13.70;99.90
5222;DHT22;2630;52.036;8.514;2022-11-04T14:23:59;13.70;99.90
5222;DHT22;2630;52.036;8.514;2022-11-04T14:26:45;13.60;99.90
5222;DHT22;2630;52.036;8.514;2022-11-04T14:29:19;13.50;99.90
5222;DHT22;2630;52.036;8.514;2022-11-04T14:31:49;13.40;99.90
5222;DHT22;2630;52.036;8.514;2022-11-04T14:34:30;13.30;99.90
5222;DHT22;2630;52.036;8.514;2022-11-04T14:37:20;13.20;99.90
5222;DHT22;2630;52.036;8.514;2022-11-04T14:39:54;13.10;99.90
5222;DHT22;2630;52.036;8.514;2022-11-04T14:42:49;13.00;99.90
5222;DHT22;2630;52.036;8.514;2022-11-04T14:45:20;12.90;99.90
5222;DHT22;2630;52.036;8.514;2022-11-04T14:48:00;12.70;99.90
5222;DHT22;2630;52.036;8.514;2022-11-04T14:50:31;12.60;99.90
5222;DHT22;2630;52.036;8.514;2022-11-04T14:55:28;12.40;99.90
5222;DHT22;2630;52.036;8.514;2022-11-04T14:57:58;12.30;99.90
5222;DHT22;2630;52.036;8.514;2022-11-04T15:00:34;12.30;99.90
5222;DHT22;2630;52.036;8.514;2022-11-04T15:03:15;12.30;99.90
5222;DHT22;2630;52.036;8.514;2022-11-04T15:05:50;12.20;99.90
5222;DHT22;2630;52.036;8.514;2022-11-04T15:08:29;12.30;99.90
5222;DHT22;2630;52.036;8.514;2022-11-04T15:13:26;12.40;99.90
5222;DHT22;2630;52.036;8.514;2022-11-04T15:15:53;12.40;99.90
5222;DHT22;2630;52.036;8.514;2022-11-04T15:18:22;12.40;99.90
5222;DHT22;2630;52.036;8.514;2022-11-04T15:20:56;12.50;99.90
5222;DHT22;2630;52.036;8.514;2022-11-04T15:23:28;12.50;99.90
5222;DHT22;2630;52.036;8.514;2022-11-04T15:25:55;12.40;99.90
5222;DHT22;2630;52.036;8.514;2022-11-04T15:28:26;12.40;99.90
5222;DHT22;2630;52.036;8.514;2022-11-04T15:31:18;12.40;99.90
5222;DHT22;2630;52.036;8.514;2022-11-04T15:33:51;12.30;99.90
5222;DHT22;2630;52.036;8.514;2022-11-04T15:36:26;12.30;99.90
5222;DHT22;2630;52.036;8.514;2022-11-04T15:38:58;12.30;99.90
5222;DHT22;2630;52.036;8.514;2022-11-04T15:41:26;12.30;99.90
5222;DHT22;2630;52.036;8.514;2022-11-04T15:44:19;12.20;99.90
5222;DHT22;2630;52.036;8.514;2022-11-04T15:46:48;12.20;99.90
5222;DHT22;2630;52.036;8.514;2022-11-04T15:49:20;12.30;99.90
5222;DHT22;2630;52.036;8.514;2022-11-04T15:51:46;12.30;99.90
5222;DHT22;2630;52.036;8.514;2022-11-04T15:54:35;12.20;99.90
5222;DHT22;2630;52.036;8.514;2022-11-04T15:57:20;12.30;99.90
5222;DHT22;2630;52.036;8.514;2022-11-04T16:02:32;12.40;99.90
5222;DHT22;2630;52.036;8.514;2022-11-04T16:07:41;12.40;99.90
5222;DHT22;2630;52.036;8.514;2022-11-04T16:10:32;12.40;99.90
5222;DHT22;2630;52.036;8.514;2022-11-04T16:18:38;11.90;99.90
5222;DHT22;2630;52.036;8.514;2022-11-04T16:21:12;11.80;99.90
5222;DHT22;2630;52.036;8.514;2022-11-04T16:23:47;11.70;99.90
5222;DHT22;2630;52.036;8.514;2022-11-04T16:26:14;11.60;99.90
5222;DHT22;2630;52.036;8.514;2022-11-04T16:28:40;11.40;99.90
5222;DHT22;2630;52.036;8.514;2022-11-04T16:31:26;11.20;99.90
5222;DHT22;2630;52.036;8.514;2022-11-04T16:33:52;11.20;99.90
5222;DHT22;2630;52.036;8.514;2022-11-04T16:39:00;10.70;99.90
5222;DHT22;2630;52.036;8.514;2022-11-04T16:41:31;10.70;99.90
5222;DHT22;2630;52.036;8.514;2022-11-04T16:43:57;10.60;99.90
5222;DHT22;2630;52.036;8.514;2022-11-04T16:46:23;10.60;99.90
5222;DHT22;2630;52.036;8.514;2022-11-04T16:48:49;10.50;99.90
5222;DHT22;2630;52.036;8.514;2022-11-04T16:51:16;10.40;99.90
5222;DHT22;2630;52.036;8.514;2022-11-04T16:53:42;10.40;99.90
5222;DHT22;2630;52.036;8.514;2022-11-04T16:56:08;10.40;99.90
5222;DHT22;2630;52.036;8.514;2022-11-04T16:58:34;10.30;99.90
5222;DHT22;2630;52.036;8.514;2022-11-04T17:03:25;10.20;99.90
5222;DHT22;2630;52.036;8.514;2022-11-04T17:05:53;10.20;99.90
5222;DHT22;2630;52.036;8.514;2022-11-04T17:08:21;10.20;99.90
5222;DHT22;2630;52.036;8.514;2022-11-04T17:10:47;10.20;99.90
5222;DHT22;2630;52.036;8.514;2022-11-04T17:13:13;10.20;99.90
5222;DHT22;2630;52.036;8.514;2022-11-04T17:18:05;10.20;99.90
5222;DHT22;2630;52.036;8.514;2022-11-04T17:20:31;10.20;99.90
5222;DHT22;2630;52.036;8.514;2022-11-04T17:22:58;10.20;99.90
5222;DHT22;2630;52.036;8.514;2022-11-04T17:25:26;10.20;99.90
5222;DHT22;2630;52.036;8.514;2022-11-04T17:27:52;10.20;99.90
5222;DHT22;2630;52.036;8.514;2022-11-04T17:30:18;10.10;99.90
5222;DHT22;2630;52.036;8.514;2022-11-04T17:32:45;10.10;99.90
5222;DHT22;2630;52.036;8.514;2022-11-04T17:35:11;10.10;99.90
5222;DHT22;2630;52.036;8.514;2022-11-04T17:37:36;10.10;99.90
5222;DHT22;2630;52.036;8.514;2022-11-04T17:40:03;10.10;99.90
5222;DHT22;2630;52.036;8.514;2022-11-04T17:42:29;10.10;99.90
5222;DHT22;2630;52.036;8.514;2022-11-04T17:45:13;10.10;99.90
5222;DHT22;2630;52.036;8.514;2022-11-04T17:47:38;10.10;99.90
5222;DHT22;2630;52.036;8.514;2022-11-04T17:50:04;10.10;99.90
5222;DHT22;2630;52.036;8.514;2022-11-04T17:52:33;10.00;99.90
5222;DHT22;2630;52.036;8.514;2022-11-04T17:57:24;9.90;99.90
5222;DHT22;2630;52.036;8.514;2022-11-04T17:59:50;10.00;99.90
5222;DHT22;2630;52.036;8.514;2022-11-04T18:02:15;10.00;99.90
5222;DHT22;2630;52.036;8.514;2022-11-04T18:04:41;10.00;99.90
5222;DHT22;2630;52.036;8.514;2022-11-04T18:07:07;9.90;99.90
5222;DHT22;2630;52.036;8.514;2022-11-04T18:12:00;10.00;99.90
5222;DHT22;2630;52.036;8.514;2022-11-04T18:14:45;10.00;99.90
5222;DHT22;2630;52.036;8.514;2022-11-04T18:19:36;9.80;99.90
5222;DHT22;2630;52.036;8.514;2022-11-04T18:22:02;9.70;99.90
5222;DHT22;2630;52.036;8.514;2022-11-04T18:24:28;9.70;99.90
5222;DHT22;2630;52.036;8.514;2022-11-04T18:26:56;9.70;99.90
5222;DHT22;2630;52.036;8.514;2022-11-04T18:29:22;9.70;99.90
5222;DHT22;2630;52.036;8.514;2022-11-04T18:31:49;9.60;99.90
5222;DHT22;2630;52.036;8.514;2022-11-04T18:34:16;9.60;99.90
5222;DHT22;2630;52.036;8.514;2022-11-04T18:36:43;9.60;99.90
5222;DHT22;2630;52.036;8.514;2022-11-04T18:39:12;9.60;99.90
5222;DHT22;2630;52.036;8.514;2022-11-04T18:41:38;9.50;99.90
5222;DHT22;2630;52.036;8.514;2022-11-04T18:44:08;9.50;99.90
5222;DHT22;2630;52.036;8.514;2022-11-04T18:56:21;9.50;99.90
5222;DHT22;2630;52.036;8.514;2022-11-04T19:01:21;9.50;99.90
5222;DHT22;2630;52.036;8.514;2022-11-04T19:03:47;9.50;99.90
5222;DHT22;2630;52.036;8.514;2022-11-04T19:08:41;9.40;99.90
5222;DHT22;2630;52.036;8.514;2022-11-04T19:11:17;9.40;99.90
5222;DHT22;2630;52.036;8.514;2022-11-04T19:13:43;9.30;99.90
5222;DHT22;2630;52.036;8.514;2022-11-04T19:18:36;9.20;99.90
5222;DHT22;2630;52.036;8.514;2022-11-04T19:21:07;9.10;99.90
5222;DHT22;2630;52.036;8.514;2022-11-04T19:23:33;9.00;99.90
5222;DHT22;2630;52.036;8.514;2022-11-04T19:28:29;8.90;99.90
5222;DHT22;2630;52.036;8.514;2022-11-04T19:30:59;8.80;99.90
5222;DHT22;2630;52.036;8.514;2022-11-04T19:33:25;8.80;99.90
5222;DHT22;2630;52.036;8.514;2022-11-04T19:45:43;8.60;99.90
5222;DHT22;2630;52.036;8.514;2022-11-04T19:48:11;8.60;99.90
5222;DHT22;2630;52.036;8.514;2022-11-04T19:53:04;8.60;99.90
5222;DHT22;2630;52.036;8.514;2022-11-04T19:55:30;8.70;99.90
5222;DHT22;2630;52.036;8.514;2022-11-04T20:00:23;8.70;99.90
5222;DHT22;2630;52.036;8.514;2022-11-04T20:02:49;8.60;99.90
5222;DHT22;2630;52.036;8.514;2022-11-04T20:05:15;8.70;99.90
5222;DHT22;2630;52.036;8.514;2022-11-04T20:12:35;8.50;99.90
5222;DHT22;2630;52.036;8.514;2022-11-04T20:22:39;8.50;99.90
5222;DHT22;2630;52.036;8.514;2022-11-04T20:25:05;8.50;99.90
5222;DHT22;2630;52.036;8.514;2022-11-04T20:27:31;8.50;99.90
5222;DHT22;2630;52.036;8.514;2022-11-04T20:29:57;8.50;99.90
5222;DHT22;2630;52.036;8.514;2022-11-04T20:32:23;8.50;99.90
5222;DHT22;2630;52.036;8.514;2022-11-04T20:34:48;8.50;99.90
5222;DHT22;2630;52.036;8.514;2022-11-04T20:37:14;8.40;99.90
5222;DHT22;2630;52.036;8.514;2022-11-04T20:39:40;8.40;99.90
5222;DHT22;2630;52.036;8.514;2022-11-04T20:44:32;8.40;99.90
5222;DHT22;2630;52.036;8.514;2022-11-04T20:46:58;8.40;99.90
5222;DHT22;2630;52.036;8.514;2022-11-04T20:59:11;8.40;99.90
5222;DHT22;2630;52.036;8.514;2022-11-04T21:01:39;8.50;99.90
5222;DHT22;2630;52.036;8.514;2022-11-04T21:08:58;8.80;99.90
5222;DHT22;2630;52.036;8.514;2022-11-04T21:11:25;8.90;99.90
5222;DHT22;2630;52.036;8.514;2022-11-04T21:16:18;9.00;99.90
5222;DHT22;2630;52.036;8.514;2022-11-04T21:18:43;9.00;99.90
5222;DHT22;2630;52.036;8.514;2022-11-04T21:21:12;9.00;99.90
5222;DHT22;2630;52.036;8.514;2022-11-04T21:31:02;9.20;99.90
5222;DHT22;2630;52.036;8.514;2022-11-04T21:33:28;9.10;99.90
5222;DHT22;2630;52.036;8.514;2022-11-04T21:38:20;9.20;99.90
5222;DHT22;2630;52.036;8.514;2022-11-04T21:40:47;9.20;99.90
5222;DHT22;2630;52.036;8.514;2022-11-04T22:20:04;8.70;99.90
5222;DHT22;2630;52.036;8.514;2022-11-04T22:42:13;8.60;99.90
5222;DHT22;2630;52.036;8.514;2022-11-04T22:54:25;8.40;99.90
5222;DHT22;2630;52.036;8.514;2022-11-04T22:59:18;8.30;99.90
5222;DHT22;2630;52.036;8.514;2022-11-04T23:01:45;8.30;99.90
5222;DHT22;2630;52.036;8.514;2022-11-04T23:04:12;8.30;99.90
5222;DHT22;2630;52.036;8.514;2022-11-04T23:09:14;8.10;99.90
5222;DHT22;2630;52.036;8.514;2022-11-04T23:11:41;8.10;99.90
5222;DHT22;2630;52.036;8.514;2022-11-04T23:14:26;8.10;99.90